Time;durP1;ratioP1;P1;durP2;ratioP2;P2;SDS_P1;SDS_P2;PMS_P1;PMS_P2;Temp;Humidity;BMP_temperature;BMP_pressure;BME280_temperature;BME280_humidity;BME280_pressure;Samples;Min_cycle;Max_cycle;Signal;HPM_P1;HPM_P2
2023/10/17 00:02:49;;;;;;;7.05;3.30;;;;;;;;;;5077143;28;20318;-70
2023/10/17 00:05:14;;;;;;;8.27;3.58;;;;;;;;;;5078180;28;20036;-71
2023/10/17 00:07:43;;;;;;;11.68;3.67;;;;;;;;;;5079131;28;20051;-70
2023/10/17 00:10:14;;;;;;;9.15;3.28;;;;;;;;;;5062009;28;20001;-70
2023/10/17 00:12:41;;;;;;;7.47;3.70;;;;;;;;;;5079774;28;20059;-71
2023/10/17 00:17:50;;;;;;;7.30;4.07;;;;;;;;;;5080261;28;20058;-70
2023/10/17 00:20:18;;;;;;;6.18;2.92;;;;;;;;;;5080173;28;20013;-70
2023/10/17 00:22:43;;;;;;;7.15;3.10;;;;;;;;;;5078722;28;20032;-71
2023/10/17 00:25:17;;;;;;;8.20;3.00;;;;;;;;;;5078407;28;20032;-71
2023/10/17 00:27:43;;;;;;;8.43;3.30;;;;;;;;;;5078156;28;20094;-71
2023/10/17 00:30:16;;;;;;;5.82;3.10;;;;;;;;;;5078879;28;20435;-72
2023/10/17 00:32:42;;;;;;;8.45;2.85;;;;;;;;;;5078378;28;20043;-71
2023/10/17 00:35:19;;;;;;;10.30;3.03;;;;;;;;;;5078245;28;20028;-72
2023/10/17 00:37:53;;;;;;;6.47;3.00;;;;;;;;;;5061132;28;20035;-72
2023/10/17 00:40:34;;;;;;;6.45;2.70;;;;;;;;;;5069703;28;20099;-71
2023/10/17 00:42:59;;;;;;;10.60;2.90;;;;;;;;;;5061220;28;20393;-71
2023/10/17 00:45:25;;;;;;;5.97;2.60;;;;;;;;;;5060127;28;20028;-71
2023/10/17 00:47:50;;;;;;;10.03;3.23;;;;;;;;;;5059722;28;20067;-71
2023/10/17 00:50:19;;;;;;;11.20;3.30;;;;;;;;;;5041293;28;20271;-70
2023/10/17 00:52:44;;;;;;;13.35;3.42;;;;;;;;;;5056541;28;20024;-71
2023/10/17 00:55:11;;;;;;;7.78;3.08;;;;;;;;;;5057935;28;20025;-70
2023/10/17 00:57:37;;;;;;;6.72;2.80;;;;;;;;;;5057309;28;20025;-71
2023/10/17 01:00:16;;;;;;;8.10;3.00;;;;;;;;;;5042517;28;20040;-71
2023/10/17 01:02:51;;;;;;;9.35;2.92;;;;;;;;;;5057300;28;20025;-71
2023/10/17 01:05:16;;;;;;;7.70;2.97;;;;;;;;;;5055602;28;20029;-71
2023/10/17 01:07:42;;;;;;;6.90;3.25;;;;;;;;;;5055732;28;20009;-70
2023/10/17 01:10:10;;;;;;;7.33;3.10;;;;;;;;;;5037369;28;20013;-71
2023/10/17 01:12:40;;;;;;;6.30;2.88;;;;;;;;;;5054950;28;20778;-70
2023/10/17 01:15:06;;;;;;;10.85;3.58;;;;;;;;;;5054938;28;20017;-71
2023/10/17 01:17:35;;;;;;;7.65;3.30;;;;;;;;;;5054775;28;20032;-71
2023/10/17 01:20:07;;;;;;;6.68;3.15;;;;;;;;;;5054924;28;20025;-71
2023/10/17 01:22:32;;;;;;;8.68;3.00;;;;;;;;;;5054706;28;20048;-71
2023/10/17 01:24:58;;;;;;;7.33;3.20;;;;;;;;;;5054356;28;20056;-70
2023/10/17 01:27:23;;;;;;;8.60;2.92;;;;;;;;;;5054533;28;20317;-70
2023/10/17 01:29:48;;;;;;;6.22;3.10;;;;;;;;;;5054528;28;20457;-71
2023/10/17 01:32:15;;;;;;;5.32;2.80;;;;;;;;;;5036548;28;20028;-70
2023/10/17 01:34:40;;;;;;;8.55;3.47;;;;;;;;;;5054436;28;20021;-71
2023/10/17 01:37:07;;;;;;;7.10;2.90;;;;;;;;;;5054226;28;20024;-71
2023/10/17 01:39:33;;;;;;;5.68;2.95;;;;;;;;;;5054485;28;20346;-71
2023/10/17 01:41:59;;;;;;;9.07;3.00;;;;;;;;;;5054260;28;20536;-71
2023/10/17 01:44:24;;;;;;;6.05;3.28;;;;;;;;;;5054170;28;20059;-71
2023/10/17 01:46:49;;;;;;;8.53;3.37;;;;;;;;;;5053892;28;20101;-71
2023/10/17 01:49:15;;;;;;;7.35;2.83;;;;;;;;;;5035663;28;20309;-71
2023/10/17 01:51:47;;;;;;;12.65;3.42;;;;;;;;;;5036439;28;20535;-71
2023/10/17 01:54:14;;;;;;;10.27;3.40;;;;;;;;;;5054288;28;20096;-71
2023/10/17 01:56:40;;;;;;;6.68;3.05;;;;;;;;;;5054055;28;20104;-71
2023/10/17 01:59:25;;;;;;;9.82;3.17;;;;;;;;;;5034850;28;20060;-71
2023/10/17 02:01:50;;;;;;;6.28;3.17;;;;;;;;;;5051927;28;20100;-71
2023/10/17 02:04:18;;;;;;;7.73;3.40;;;;;;;;;;5033956;28;20120;-70
2023/10/17 02:06:43;;;;;;;10.43;3.72;;;;;;;;;;5051931;28;20267;-71
2023/10/17 02:09:38;;;;;;;9.73;3.30;;;;;;;;;;5052189;28;20027;-70
2023/10/17 02:12:04;;;;;;;7.80;3.30;;;;;;;;;;5033896;28;20043;-70
2023/10/17 02:14:29;;;;;;;9.75;3.30;;;;;;;;;;5051837;28;20384;-70
2023/10/17 02:16:55;;;;;;;9.70;3.77;;;;;;;;;;5053423;28;20427;-71
2023/10/17 02:19:23;;;;;;;8.55;3.38;;;;;;;;;;5053579;28;20299;-71
2023/10/17 02:21:51;;;;;;;10.98;3.30;;;;;;;;;;5051962;28;20046;-70
2023/10/17 02:24:20;;;;;;;6.30;3.13;;;;;;;;;;5051382;28;20021;-70
2023/10/17 02:27:08;;;;;;;9.60;3.25;;;;;;;;;;5033737;28;20094;-71
2023/10/17 02:29:39;;;;;;;6.82;3.60;;;;;;;;;;5051498;28;20017;-70
2023/10/17 02:32:05;;;;;;;6.45;3.28;;;;;;;;;;5033477;28;20543;-70
2023/10/17 02:34:30;;;;;;;8.65;3.40;;;;;;;;;;5051440;28;20645;-70
2023/10/17 02:36:56;;;;;;;8.43;3.40;;;;;;;;;;5052779;28;20021;-71
2023/10/17 02:39:21;;;;;;;7.75;3.60;;;;;;;;;;5053322;28;20318;-71
2023/10/17 02:41:46;;;;;;;9.50;3.20;;;;;;;;;;5053274;28;20028;-70
2023/10/17 02:44:14;;;;;;;8.90;3.65;;;;;;;;;;5053261;28;20027;-71
2023/10/17 02:46:41;;;;;;;8.98;3.50;;;;;;;;;;5035443;28;20021;-71
2023/10/17 02:49:07;;;;;;;8.90;3.30;;;;;;;;;;5053198;28;20045;-71
2023/10/17 02:51:33;;;;;;;7.72;3.35;;;;;;;;;;5053027;28;20070;-71
2023/10/17 02:53:59;;;;;;;7.03;3.50;;;;;;;;;;5053273;28;20460;-71
2023/10/17 02:56:25;;;;;;;6.18;3.10;;;;;;;;;;5035459;28;20075;-71
2023/10/17 02:58:59;;;;;;;6.93;3.63;;;;;;;;;;5036112;28;20020;-71
2023/10/17 03:01:24;;;;;;;7.18;3.80;;;;;;;;;;5057268;28;20017;-71
2023/10/17 03:03:50;;;;;;;8.68;3.60;;;;;;;;;;5057150;28;20439;-71
2023/10/17 03:06:16;;;;;;;6.00;3.60;;;;;;;;;;5057159;28;20464;-70
2023/10/17 03:08:42;;;;;;;8.85;3.60;;;;;;;;;;5039357;28;20491;-71
2023/10/17 03:11:15;;;;;;;8.88;3.88;;;;;;;;;;5056876;28;20021;-70
2023/10/17 03:13:42;;;;;;;7.65;3.45;;;;;;;;;;5039045;28;20017;-70
2023/10/17 03:19:06;;;;;;;8.60;3.63;;;;;;;;;;5047826;28;20040;-71
2023/10/17 03:21:34;;;;;;;7.80;3.90;;;;;;;;;;5057088;28;20017;-71
2023/10/17 03:24:04;;;;;;;7.80;3.70;;;;;;;;;;5056833;28;20021;-71
2023/10/17 03:26:38;;;;;;;7.13;3.55;;;;;;;;;;5056735;28;20090;-71
2023/10/17 03:29:11;;;;;;;9.02;3.38;;;;;;;;;;5038868;28;20017;-71
2023/10/17 03:31:38;;;;;;;8.25;3.65;;;;;;;;;;5056958;28;20021;-71
2023/10/17 03:34:05;;;;;;;6.13;2.92;;;;;;;;;;5056673;28;20049;-70
2023/10/17 03:39:27;;;;;;;7.50;3.35;;;;;;;;;;5056861;28;20108;-71
2023/10/17 03:41:58;;;;;;;7.72;3.30;;;;;;;;;;5056475;28;20102;-71
2023/10/17 03:44:30;;;;;;;8.85;3.60;;;;;;;;;;5056436;28;20468;-71
2023/10/17 03:46:59;;;;;;;9.35;4.18;;;;;;;;;;5056505;28;20009;-71
2023/10/17 03:49:24;;;;;;;10.95;3.80;;;;;;;;;;5038554;28;20017;-71
2023/10/17 03:51:54;;;;;;;8.65;3.42;;;;;;;;;;5056410;28;20067;-71
2023/10/17 03:54:23;;;;;;;7.85;3.47;;;;;;;;;;5056261;28;20021;-71
2023/10/17 03:57:04;;;;;;;8.80;3.63;;;;;;;;;;5038361;28;20032;-71
2023/10/17 03:59:39;;;;;;;6.97;3.85;;;;;;;;;;5056135;28;20468;-71
2023/10/17 04:02:04;;;;;;;7.07;3.50;;;;;;;;;;5038365;28;20071;-71
2023/10/17 04:04:35;;;;;;;8.60;3.42;;;;;;;;;;5038040;28;20426;-72
2023/10/17 04:07:06;;;;;;;9.05;4.03;;;;;;;;;;5056073;28;20136;-71
2023/10/17 04:09:37;;;;;;;10.45;3.75;;;;;;;;;;5056024;28;20040;-71
2023/10/17 04:12:03;;;;;;;7.13;3.80;;;;;;;;;;5055060;28;20033;-70
2023/10/17 04:14:34;;;;;;;7.80;4.07;;;;;;;;;;5056029;28;20020;-71
2023/10/17 04:17:05;;;;;;;7.55;4.20;;;;;;;;;;5055916;28;20013;-71
2023/10/17 04:19:31;;;;;;;12.88;4.78;;;;;;;;;;5055783;28;20035;-71
2023/10/17 04:24:34;;;;;;;10.80;4.40;;;;;;;;;;5055739;28;20111;-71
2023/10/17 04:29:38;;;;;;;12.05;4.28;;;;;;;;;;5055870;28;20059;-71
2023/10/17 04:32:09;;;;;;;12.90;4.40;;;;;;;;;;5055538;28;20017;-71
2023/10/17 04:34:34;;;;;;;6.00;3.78;;;;;;;;;;5037805;28;20031;-72
2023/10/17 04:37:03;;;;;;;8.20;3.70;;;;;;;;;;5055362;28;20460;-70
2023/10/17 04:39:35;;;;;;;7.40;3.78;;;;;;;;;;5055456;28;20271;-71
2023/10/17 04:44:32;;;;;;;9.65;4.20;;;;;;;;;;5055755;28;20036;-71
2023/10/17 04:47:16;;;;;;;7.28;3.80;;;;;;;;;;5055297;28;20017;-71
2023/10/17 04:49:41;;;;;;;9.15;4.18;;;;;;;;;;5037452;28;20472;-71
2023/10/17 04:52:08;;;;;;;7.85;3.97;;;;;;;;;;5055261;28;20017;-71
2023/10/17 04:57:48;;;;;;;9.38;4.30;;;;;;;;;;5055365;28;20025;-71
2023/10/17 05:00:11;;;;;;;15.05;4.70;;;;;;;;;;5055047;28;20388;-71
2023/10/17 05:02:36;;;;;;;10.30;4.03;;;;;;;;;;5055097;28;20020;-71
2023/10/17 06:18:18;;;;;;;12.70;6.15;;;;;;;;;;5053901;28;20032;-72
2023/10/17 06:21:06;;;;;;;11.65;6.40;;;;;;;;;;5053828;28;20037;-71
2023/10/17 06:31:56;;;;;;;13.63;5.43;;;;;;;;;;5059502;28;20028;-71
2023/10/17 06:34:22;;;;;;;10.07;5.60;;;;;;;;;;5040595;28;20025;-71
2023/10/17 06:36:59;;;;;;;9.98;6.18;;;;;;;;;;5059961;28;20021;-71
2023/10/17 06:39:26;;;;;;;11.80;6.00;;;;;;;;;;5056762;28;20025;-72
2023/10/17 06:41:55;;;;;;;15.80;6.35;;;;;;;;;;5054334;28;20024;-69
2023/10/17 06:44:23;;;;;;;14.60;6.63;;;;;;;;;;5036075;28;20032;-71
2023/10/17 06:47:07;;;;;;;12.13;6.15;;;;;;;;;;5053619;28;20052;-70
2023/10/17 06:54:41;;;;;;;12.00;6.45;;;;;;;;;;5053612;28;20270;-72
2023/10/17 06:57:18;;;;;;;10.43;6.15;;;;;;;;;;5053195;28;20384;-71
2023/10/17 06:59:44;;;;;;;13.23;7.07;;;;;;;;;;5053139;28;20032;-71
2023/10/17 07:02:18;;;;;;;17.95;7.22;;;;;;;;;;5053135;28;20017;-72
2023/10/17 07:04:44;;;;;;;14.07;7.53;;;;;;;;;;5053005;28;20036;-71
2023/10/17 07:07:09;;;;;;;13.43;6.35;;;;;;;;;;5053147;28;20017;-72
2023/10/17 07:09:38;;;;;;;12.13;7.13;;;;;;;;;;5053068;28;20013;-71
2023/10/17 07:12:04;;;;;;;12.00;6.85;;;;;;;;;;5052795;28;20053;-70
2023/10/17 07:14:29;;;;;;;11.55;6.60;;;;;;;;;;5035014;28;20013;-71
2023/10/17 07:17:00;;;;;;;9.90;5.73;;;;;;;;;;5034958;28;20116;-72
2023/10/17 07:22:13;;;;;;;11.50;6.17;;;;;;;;;;5053333;28;20057;-71
2023/10/17 07:24:36;;;;;;;10.80;5.68;;;;;;;;;;5052243;28;20292;-71
2023/10/17 07:27:11;;;;;;;12.77;6.00;;;;;;;;;;5052869;28;20399;-71
2023/10/17 07:29:37;;;;;;;12.07;6.28;;;;;;;;;;5034822;28;20317;-71
2023/10/17 07:32:09;;;;;;;8.98;6.00;;;;;;;;;;5052814;28;20032;-71
2023/10/17 07:34:35;;;;;;;12.45;5.70;;;;;;;;;;5052766;28;20025;-71
2023/10/17 07:39:59;;;;;;;9.43;5.20;;;;;;;;;;5053571;28;20112;-71
2023/10/17 07:42:30;;;;;;;11.52;5.25;;;;;;;;;;5035342;28;20491;-72
2023/10/17 07:44:57;;;;;;;12.35;5.05;;;;;;;;;;5052629;28;20013;-72
2023/10/17 07:47:33;;;;;;;8.95;5.30;;;;;;;;;;5038411;28;20021;-72
2023/10/17 07:49:59;;;;;;;8.68;4.93;;;;;;;;;;5056640;28;20088;-72
2023/10/17 07:52:30;;;;;;;8.88;5.10;;;;;;;;;;5056585;28;20070;-72
2023/10/17 07:54:57;;;;;;;7.03;5.05;;;;;;;;;;5056766;28;20013;-72
2023/10/17 07:57:26;;;;;;;7.38;4.57;;;;;;;;;;5056413;28;20024;-72
2023/10/17 08:00:00;;;;;;;8.40;4.60;;;;;;;;;;5056186;28;20032;-72
2023/10/17 08:02:30;;;;;;;9.10;4.53;;;;;;;;;;5056378;28;20041;-72
2023/10/17 08:04:55;;;;;;;8.68;4.50;;;;;;;;;;5056310;28;20074;-72
2023/10/17 08:07:20;;;;;;;9.23;4.40;;;;;;;;;;5056193;28;20513;-72
2023/10/17 08:09:56;;;;;;;8.63;4.50;;;;;;;;;;5056156;28;20013;-70
2023/10/17 08:12:22;;;;;;;8.02;4.45;;;;;;;;;;5055914;28;20052;-71
2023/10/17 08:14:52;;;;;;;10.25;4.15;;;;;;;;;;5056063;28;20044;-71
2023/10/17 08:17:19;;;;;;;6.95;3.80;;;;;;;;;;5055931;28;20515;-71
2023/10/17 08:20:38;;;;;;;7.82;4.20;;;;;;;;;;5056084;28;20013;-72
2023/10/17 08:23:06;;;;;;;7.75;3.90;;;;;;;;;;5055649;28;20090;-73
2023/10/17 08:25:39;;;;;;;6.43;3.90;;;;;;;;;;5055679;28;20067;-71
2023/10/17 08:28:13;;;;;;;8.02;3.88;;;;;;;;;;5055950;28;20017;-72
2023/10/17 08:30:38;;;;;;;8.50;3.88;;;;;;;;;;5055979;28;20097;-72
2023/10/17 08:35:39;;;;;;;9.05;3.60;;;;;;;;;;5055569;28;20484;-71
2023/10/17 08:38:09;;;;;;;6.50;3.80;;;;;;;;;;5055875;28;20055;-71
2023/10/17 08:43:16;;;;;;;7.15;3.22;;;;;;;;;;5055581;28;20061;-71
2023/10/17 08:45:43;;;;;;;5.00;2.80;;;;;;;;;;5055206;28;20033;-71
2023/10/17 08:48:09;;;;;;;6.07;3.30;;;;;;;;;;5055712;28;20013;-72
2023/10/17 08:50:37;;;;;;;5.60;3.07;;;;;;;;;;5055441;28;20112;-71
2023/10/17 08:53:06;;;;;;;6.95;3.10;;;;;;;;;;5037416;28;20025;-71
2023/10/17 08:55:31;;;;;;;6.22;3.00;;;;;;;;;;5055343;28;20628;-71
2023/10/17 08:57:59;;;;;;;7.93;2.83;;;;;;;;;;5055274;28;20017;-71
2023/10/17 09:00:48;;;;;;;5.38;2.60;;;;;;;;;;5054860;28;20013;-71
2023/10/17 09:03:23;;;;;;;4.35;2.53;;;;;;;;;;5054854;28;20082;-71
2023/10/17 09:05:58;;;;;;;5.78;2.60;;;;;;;;;;5055624;28;20376;-71
2023/10/17 09:08:41;;;;;;;4.78;2.50;;;;;;;;;;5055033;28;20017;-71
2023/10/17 09:11:08;;;;;;;5.60;2.40;;;;;;;;;;5054857;28;20021;-71
2023/10/17 09:16:19;;;;;;;7.72;2.30;;;;;;;;;;5055108;28;20032;-72
2023/10/17 09:18:47;;;;;;;5.07;2.00;;;;;;;;;;5054775;28;20495;-72
2023/10/17 09:21:13;;;;;;;4.53;1.85;;;;;;;;;;5054707;28;20036;-71
2023/10/17 09:23:39;;;;;;;5.65;1.80;;;;;;;;;;5054533;28;20016;-71
2023/10/17 09:26:07;;;;;;;7.43;2.10;;;;;;;;;;5054716;28;20021;-72
2023/10/17 09:28:33;;;;;;;3.92;1.50;;;;;;;;;;5036619;28;20784;-71
2023/10/17 09:31:12;;;;;;;3.60;1.52;;;;;;;;;;5054594;28;20084;-72
2023/10/17 09:33:43;;;;;;;3.42;1.60;;;;;;;;;;5054386;28;20100;-71
2023/10/17 09:36:09;;;;;;;4.03;1.80;;;;;;;;;;5037810;28;20425;-71
2023/10/17 09:38:35;;;;;;;3.72;1.60;;;;;;;;;;5054404;28;20013;-71
2023/10/17 09:41:05;;;;;;;3.63;1.60;;;;;;;;;;5054364;28;20525;-72
2023/10/17 09:43:30;;;;;;;3.47;1.70;;;;;;;;;;5054400;28;20017;-71
2023/10/17 09:46:04;;;;;;;5.00;1.90;;;;;;;;;;5054157;28;20097;-71
2023/10/17 09:48:33;;;;;;;3.30;1.60;;;;;;;;;;5054108;28;20009;-71
2023/10/17 09:51:01;;;;;;;3.53;1.60;;;;;;;;;;5054179;28;20020;-72
2023/10/17 09:53:28;;;;;;;5.10;1.60;;;;;;;;;;5054340;28;20464;-72
2023/10/17 09:56:08;;;;;;;5.28;1.90;;;;;;;;;;5036488;28;20024;-72
2023/10/17 09:58:34;;;;;;;5.78;1.50;;;;;;;;;;5054062;28;20029;-70
2023/10/17 10:01:04;;;;;;;6.32;1.85;;;;;;;;;;5053980;28;20096;-71
2023/10/17 10:03:30;;;;;;;3.05;1.40;;;;;;;;;;5036004;28;20040;-73
2023/10/17 10:06:16;;;;;;;3.30;1.60;;;;;;;;;;5035882;28;20472;-72
2023/10/17 10:08:41;;;;;;;4.53;1.65;;;;;;;;;;5053027;28;20017;-70
2023/10/17 10:11:07;;;;;;;4.28;1.40;;;;;;;;;;5053784;28;20430;-71
2023/10/17 10:13:52;;;;;;;2.47;1.40;;;;;;;;;;5035975;28;20017;-71
2023/10/17 10:16:17;;;;;;;3.55;1.60;;;;;;;;;;5053475;28;20028;-72
2023/10/17 10:18:42;;;;;;;6.53;1.60;;;;;;;;;;5053696;28;20029;-71
2023/10/17 10:21:08;;;;;;;4.18;1.50;;;;;;;;;;5036063;28;20468;-71
2023/10/17 10:23:39;;;;;;;5.32;1.80;;;;;;;;;;5053472;28;20070;-71
2023/10/17 10:26:19;;;;;;;3.90;1.73;;;;;;;;;;5053582;28;20029;-71
2023/10/17 10:28:45;;;;;;;3.97;1.58;;;;;;;;;;5053591;28;20016;-72
2023/10/17 10:31:22;;;;;;;6.70;1.50;;;;;;;;;;5053490;28;20037;-71
2023/10/17 10:33:48;;;;;;;5.95;1.50;;;;;;;;;;5053648;28;20377;-71
2023/10/17 10:36:14;;;;;;;6.22;1.80;;;;;;;;;;5054008;28;20096;-71
2023/10/17 10:38:39;;;;;;;10.18;2.22;;;;;;;;;;5053574;28;20021;-72
2023/10/17 10:41:06;;;;;;;6.20;1.80;;;;;;;;;;5053589;28;20108;-71
2023/10/17 10:43:31;;;;;;;5.05;1.70;;;;;;;;;;5053211;28;20059;-71
2023/10/17 10:45:56;;;;;;;5.07;1.70;;;;;;;;;;5053191;28;20029;-72
2023/10/17 10:48:26;;;;;;;5.93;2.05;;;;;;;;;;5053483;28;20267;-71
2023/10/17 10:50:55;;;;;;;3.05;1.30;;;;;;;;;;5036605;28;20032;-71
2023/10/17 10:53:20;;;;;;;4.45;1.77;;;;;;;;;;5053847;28;20013;-71
2023/10/17 10:55:59;;;;;;;4.57;1.83;;;;;;;;;;5053795;28;20422;-70
2023/10/17 10:58:25;;;;;;;5.80;1.70;;;;;;;;;;5054007;28;20021;-71
2023/10/17 11:00:51;;;;;;;4.72;1.80;;;;;;;;;;5053680;28;20027;-72
2023/10/17 11:03:19;;;;;;;5.18;2.15;;;;;;;;;;5052910;28;20028;-71
2023/10/17 11:05:52;;;;;;;3.25;1.80;;;;;;;;;;5053630;28;20021;-72
2023/10/17 11:08:17;;;;;;;3.55;1.63;;;;;;;;;;5053583;28;20092;-72
2023/10/17 11:10:42;;;;;;;8.77;1.90;;;;;;;;;;5053475;28;20514;-72
2023/10/17 11:13:08;;;;;;;3.78;1.80;;;;;;;;;;5053539;28;20045;-71
2023/10/17 11:15:33;;;;;;;6.00;1.95;;;;;;;;;;5053188;28;20027;-71
2023/10/17 11:17:59;;;;;;;4.38;1.80;;;;;;;;;;5053604;28;20025;-72
2023/10/17 11:20:24;;;;;;;4.05;1.85;;;;;;;;;;5056050;28;20025;-71
2023/10/17 11:22:50;;;;;;;4.65;1.70;;;;;;;;;;5057777;28;20135;-72
2023/10/17 11:25:26;;;;;;;5.27;2.33;;;;;;;;;;5057373;28;20476;-71
2023/10/17 11:27:56;;;;;;;2.95;1.55;;;;;;;;;;5057318;28;20266;-71
2023/10/17 11:30:32;;;;;;;4.18;1.70;;;;;;;;;;5057212;28;20075;-71
2023/10/17 11:33:00;;;;;;;7.43;1.73;;;;;;;;;;5057405;28;20435;-72
2023/10/17 11:35:32;;;;;;;4.82;1.90;;;;;;;;;;5057151;28;20017;-71
2023/10/17 11:37:58;;;;;;;4.50;1.77;;;;;;;;;;5057372;28;20029;-72
2023/10/17 11:40:30;;;;;;;3.65;1.58;;;;;;;;;;5039339;28;20109;-72
2023/10/17 11:42:58;;;;;;;4.30;1.90;;;;;;;;;;5056937;28;20029;-71
2023/10/17 11:45:36;;;;;;;5.10;2.05;;;;;;;;;;5056957;28;20100;-74
2023/10/17 11:48:14;;;;;;;4.28;1.90;;;;;;;;;;5057114;28;20017;-71
2023/10/17 11:50:39;;;;;;;4.45;1.70;;;;;;;;;;5056984;28;20009;-72
2023/10/17 11:53:09;;;;;;;5.32;1.90;;;;;;;;;;5056872;28;20433;-72
2023/10/17 11:55:45;;;;;;;3.92;1.80;;;;;;;;;;5056924;28;20021;-72
2023/10/17 11:58:11;;;;;;;6.68;1.90;;;;;;;;;;5057034;28;20499;-72
2023/10/17 12:00:36;;;;;;;6.32;2.00;;;;;;;;;;5056982;28;20021;-72
2023/10/17 12:03:01;;;;;;;5.17;1.90;;;;;;;;;;5038888;28;20035;-72
2023/10/17 12:05:27;;;;;;;49.37;5.80;;;;;;;;;;5056828;28;20275;-72
2023/10/17 12:08:02;;;;;;;4.63;2.00;;;;;;;;;;5056697;28;20025;-72
2023/10/17 12:10:28;;;;;;;6.20;1.98;;;;;;;;;;5056798;28;20021;-72
2023/10/17 12:12:58;;;;;;;5.57;1.80;;;;;;;;;;5038434;28;20060;-73
2023/10/17 12:15:24;;;;;;;8.93;2.03;;;;;;;;;;5056539;28;20025;-71
2023/10/17 12:17:49;;;;;;;5.13;1.92;;;;;;;;;;5056513;28;20095;-71
2023/10/17 12:20:16;;;;;;;6.87;2.27;;;;;;;;;;5056593;28;20504;-71
2023/10/17 12:22:41;;;;;;;3.97;1.85;;;;;;;;;;5056285;28;20078;-72
2023/10/17 12:25:09;;;;;;;6.00;1.70;;;;;;;;;;5056190;28;20021;-73
2023/10/17 12:27:35;;;;;;;4.40;1.60;;;;;;;;;;5055153;28;20017;-72
2023/10/17 12:30:00;;;;;;;20.63;3.10;;;;;;;;;;5055078;28;20021;-73
2023/10/17 12:32:25;;;;;;;13.87;2.40;;;;;;;;;;5037775;28;20024;-72
2023/10/17 12:34:54;;;;;;;5.87;2.00;;;;;;;;;;5056286;28;20025;-72
2023/10/17 12:37:19;;;;;;;5.32;1.60;;;;;;;;;;5056238;28;20021;-71
2023/10/17 12:39:47;;;;;;;8.30;2.10;;;;;;;;;;5056262;28;20096;-72
2023/10/17 12:42:12;;;;;;;4.82;1.77;;;;;;;;;;5055779;28;20271;-73
2023/10/17 12:44:37;;;;;;;7.47;2.00;;;;;;;;;;5055759;28;20021;-73
2023/10/17 12:47:03;;;;;;;3.17;1.30;;;;;;;;;;5055537;28;20017;-72
2023/10/17 12:49:28;;;;;;;6.53;1.70;;;;;;;;;;5056232;28;20017;-72
2023/10/17 12:51:53;;;;;;;22.80;2.92;;;;;;;;;;5055917;28;20252;-74
2023/10/17 12:54:19;;;;;;;5.25;1.80;;;;;;;;;;5056262;28;20016;-73
2023/10/17 12:56:44;;;;;;;6.43;2.17;;;;;;;;;;5055938;28;20021;-73
2023/10/17 12:59:12;;;;;;;6.03;1.93;;;;;;;;;;5038171;28;20017;-73
2023/10/17 13:01:37;;;;;;;7.63;1.83;;;;;;;;;;5055896;28;20055;-73
2023/10/17 13:04:03;;;;;;;4.45;1.80;;;;;;;;;;5037807;28;20044;-73
2023/10/17 13:06:28;;;;;;;5.20;1.73;;;;;;;;;;5055621;28;20099;-73
2023/10/17 13:09:04;;;;;;;3.23;1.57;;;;;;;;;;5055717;28;20025;-72
2023/10/17 13:11:29;;;;;;;6.60;1.80;;;;;;;;;;5055466;28;20747;-72
2023/10/17 13:13:54;;;;;;;4.90;1.37;;;;;;;;;;5055653;28;20028;-71
2023/10/17 13:16:21;;;;;;;4.60;1.65;;;;;;;;;;5055465;28;20260;-72
2023/10/17 13:18:47;;;;;;;4.18;1.50;;;;;;;;;;5037521;28;20009;-71
2023/10/17 13:21:13;;;;;;;4.97;1.60;;;;;;;;;;5055774;28;20108;-72
2023/10/17 13:23:44;;;;;;;7.18;1.60;;;;;;;;;;5055828;28;20049;-72
2023/10/17 13:26:11;;;;;;;7.63;2.33;;;;;;;;;;5055384;28;20023;-71
2023/10/17 13:28:36;;;;;;;3.17;1.60;;;;;;;;;;5037387;28;20476;-72
2023/10/17 13:31:07;;;;;;;3.75;1.38;;;;;;;;;;5055334;28;20100;-70
2023/10/17 13:33:33;;;;;;;6.75;1.70;;;;;;;;;;5054877;28;20025;-72
2023/10/17 13:35:58;;;;;;;2.72;1.40;;;;;;;;;;5037134;28;20020;-72
2023/10/17 13:38:23;;;;;;;3.53;1.67;;;;;;;;;;5037149;28;20025;-74
2023/10/17 13:40:48;;;;;;;9.30;1.73;;;;;;;;;;5037445;28;20460;-72
2023/10/17 13:43:13;;;;;;;8.87;1.87;;;;;;;;;;5054107;28;20092;-72
2023/10/17 13:45:41;;;;;;;7.20;1.70;;;;;;;;;;5054824;28;20075;-72
2023/10/17 13:48:06;;;;;;;14.68;3.10;;;;;;;;;;5055192;28;20009;-73
2023/10/17 13:50:31;;;;;;;11.25;1.88;;;;;;;;;;5056205;28;20027;-71
2023/10/17 13:53:06;;;;;;;7.72;1.83;;;;;;;;;;5057368;28;20050;-71
2023/10/17 13:55:33;;;;;;;4.18;1.45;;;;;;;;;;5038636;28;20090;-71
2023/10/17 13:58:01;;;;;;;6.70;1.67;;;;;;;;;;5055218;28;20028;-72
2023/10/17 14:00:40;;;;;;;8.93;1.70;;;;;;;;;;5056444;28;20486;-72
2023/10/17 14:03:08;;;;;;;5.38;1.42;;;;;;;;;;5058465;28;20013;-70
2023/10/17 14:05:33;;;;;;;5.57;1.60;;;;;;;;;;5040377;28;20075;-72
2023/10/17 14:07:58;;;;;;;7.45;1.58;;;;;;;;;;5058744;28;20043;-72
2023/10/17 14:10:24;;;;;;;4.07;1.57;;;;;;;;;;5055724;28;20047;-72
2023/10/17 14:12:50;;;;;;;6.18;1.70;;;;;;;;;;5055685;28;20037;-73
2023/10/17 14:15:15;;;;;;;6.85;1.75;;;;;;;;;;5055563;28;20068;-72
2023/10/17 14:17:45;;;;;;;5.07;1.50;;;;;;;;;;5054256;28;20025;-71
2023/10/17 14:20:38;;;;;;;4.03;1.60;;;;;;;;;;5054298;28;20112;-73
2023/10/17 14:23:16;;;;;;;2.53;1.38;;;;;;;;;;5054103;28;20017;-73
2023/10/17 14:28:25;;;;;;;5.00;1.60;;;;;;;;;;5054404;28;20082;-74
2023/10/17 14:30:50;;;;;;;5.87;1.60;;;;;;;;;;5053832;28;20009;-73
2023/10/17 14:33:15;;;;;;;5.30;1.50;;;;;;;;;;5053746;28;20255;-74
2023/10/17 14:35:43;;;;;;;3.67;1.38;;;;;;;;;;5053702;28;20454;-72
2023/10/17 14:38:09;;;;;;;7.30;2.33;;;;;;;;;;5053627;28;20078;-71
2023/10/17 14:40:34;;;;;;;4.07;1.42;;;;;;;;;;5033891;28;20020;-73
2023/10/17 14:43:00;;;;;;;2.83;1.75;;;;;;;;;;5035501;28;20465;-72
2023/10/17 14:45:25;;;;;;;3.38;1.50;;;;;;;;;;5035367;28;20021;-73
2023/10/17 14:47:56;;;;;;;4.43;1.67;;;;;;;;;;5035469;28;20020;-73
2023/10/17 14:50:21;;;;;;;7.00;1.67;;;;;;;;;;5053450;28;20017;-72
2023/10/17 14:52:46;;;;;;;3.63;1.58;;;;;;;;;;5053068;28;20021;-72
2023/10/17 14:55:14;;;;;;;3.40;1.60;;;;;;;;;;5052986;28;20025;-73
2023/10/17 14:57:45;;;;;;;3.28;1.58;;;;;;;;;;5053326;28;20746;-72
2023/10/17 15:00:12;;;;;;;4.22;1.52;;;;;;;;;;5053497;28;20044;-73
2023/10/17 15:02:39;;;;;;;4.30;1.45;;;;;;;;;;5053474;28;20047;-71
2023/10/17 15:05:05;;;;;;;6.97;1.65;;;;;;;;;;5035180;28;20025;-73
2023/10/17 15:07:30;;;;;;;6.85;2.13;;;;;;;;;;5035219;28;20016;-72
2023/10/17 15:09:56;;;;;;;7.90;1.90;;;;;;;;;;5053144;28;20329;-72
2023/10/17 15:12:21;;;;;;;4.88;1.60;;;;;;;;;;5053089;28;20234;-72
2023/10/17 15:14:46;;;;;;;6.07;1.80;;;;;;;;;;5053165;28;20098;-72
2023/10/17 15:17:12;;;;;;;10.13;2.00;;;;;;;;;;5053273;28;20027;-72
2023/10/17 15:19:37;;;;;;;5.40;1.70;;;;;;;;;;5053127;28;20662;-72
2023/10/17 15:22:03;;;;;;;6.90;1.80;;;;;;;;;;5053196;28;20025;-71
2023/10/17 15:24:28;;;;;;;4.85;1.95;;;;;;;;;;5053187;28;20130;-72
2023/10/17 15:26:55;;;;;;;7.30;1.70;;;;;;;;;;5053193;28;20531;-72
2023/10/17 15:29:20;;;;;;;4.00;1.58;;;;;;;;;;5053258;28;20025;-72
2023/10/17 15:31:49;;;;;;;4.28;1.83;;;;;;;;;;5052925;28;20035;-72
2023/10/17 15:34:15;;;;;;;6.32;1.80;;;;;;;;;;5052305;28;20021;-71
2023/10/17 15:36:40;;;;;;;5.40;2.22;;;;;;;;;;5053419;28;20022;-71
2023/10/17 15:39:05;;;;;;;5.63;1.80;;;;;;;;;;5036054;28;20017;-70
2023/10/17 15:41:30;;;;;;;5.27;1.70;;;;;;;;;;5053235;28;20263;-71
2023/10/17 15:43:55;;;;;;;6.97;1.70;;;;;;;;;;5053333;28;20260;-71
2023/10/17 15:46:24;;;;;;;4.47;1.70;;;;;;;;;;5035746;28;20067;-71
2023/10/17 15:48:50;;;;;;;8.63;2.20;;;;;;;;;;5053995;28;20334;-71
2023/10/17 15:51:19;;;;;;;4.53;1.90;;;;;;;;;;5052621;28;20041;-71
2023/10/17 15:53:44;;;;;;;5.05;1.58;;;;;;;;;;5053461;28;20490;-69
2023/10/17 15:56:09;;;;;;;2.80;1.50;;;;;;;;;;5065589;28;20044;-72
2023/10/17 15:58:35;;;;;;;6.47;2.00;;;;;;;;;;5074227;28;20013;-71
2023/10/17 16:01:01;;;;;;;4.13;1.75;;;;;;;;;;5057655;28;20016;-71
2023/10/17 16:03:29;;;;;;;8.77;2.22;;;;;;;;;;5074199;28;20009;-72
2023/10/17 16:05:54;;;;;;;5.45;2.05;;;;;;;;;;5075094;28;20013;-71
2023/10/17 16:08:19;;;;;;;5.85;1.75;;;;;;;;;;5078755;28;20063;-71
2023/10/17 16:10:45;;;;;;;5.80;2.10;;;;;;;;;;5061925;28;20080;-71
2023/10/17 16:13:11;;;;;;;4.72;1.80;;;;;;;;;;5079147;28;20068;-71
2023/10/17 16:15:37;;;;;;;4.90;2.03;;;;;;;;;;5080029;28;20044;-71
2023/10/17 16:18:02;;;;;;;4.70;2.08;;;;;;;;;;5079474;28;20029;-73
2023/10/17 16:20:27;;;;;;;4.13;2.20;;;;;;;;;;5079232;28;20031;-71
2023/10/17 16:22:53;;;;;;;7.67;2.80;;;;;;;;;;5078589;28;20024;-72
2023/10/17 16:25:18;;;;;;;5.17;2.17;;;;;;;;;;5061015;28;20283;-72
2023/10/17 16:27:47;;;;;;;8.27;2.10;;;;;;;;;;5078039;28;20012;-72
2023/10/17 16:30:12;;;;;;;6.20;2.20;;;;;;;;;;5077649;28;20072;-72
2023/10/17 16:32:38;;;;;;;5.35;2.00;;;;;;;;;;5075654;28;19993;-71
2023/10/17 16:35:04;;;;;;;4.95;1.90;;;;;;;;;;5042441;28;20009;-71
2023/10/17 16:37:31;;;;;;;5.53;2.00;;;;;;;;;;5060528;28;20108;-73
2023/10/17 16:39:56;;;;;;;6.97;2.10;;;;;;;;;;5059697;28;20027;-73
2023/10/17 16:42:22;;;;;;;4.93;2.10;;;;;;;;;;5057590;28;20105;-72
2023/10/17 16:44:47;;;;;;;6.05;2.38;;;;;;;;;;5058528;28;20024;-72
2023/10/17 16:47:12;;;;;;;4.63;1.88;;;;;;;;;;5064541;28;20028;-73
2023/10/17 16:49:38;;;;;;;6.55;2.35;;;;;;;;;;5063081;28;20021;-71
2023/10/17 16:52:03;;;;;;;4.15;1.98;;;;;;;;;;5056191;28;20021;-72